Time;durP1;ratioP1;P1;durP2;ratioP2;P2;SDS_P1;SDS_P2;PMS_P1;PMS_P2;Temp;Humidity;BMP_temperature;BMP_pressure;BME280_temperature;BME280_humidity;BME280_pressure;Samples;Min_cycle;Max_cycle;Signal;HPM_P1;HPM_P2
2021/10/27 00:00:31;;;;;;;15.85;11.30;;;;;;;22.37;48.79;101671.36;1728588;81;21004;-50
2021/10/27 00:02:59;;;;;;;14.58;11.03;;;;;;;22.35;48.77;101670.87;1724577;81;21020;-52
2021/10/27 00:05:25;;;;;;;13.62;10.80;;;;;;;22.32;48.78;101670.34;1729151;81;21090;-51
2021/10/27 00:07:51;;;;;;;14.93;10.85;;;;;;;22.35;48.81;101672.25;1728110;81;21994;-51
2021/10/27 00:10:17;;;;;;;17.52;12.03;;;;;;;22.36;48.79;101671.95;1690380;83;20917;-49
2021/10/27 00:12:44;;;;;;;14.58;10.63;;;;;;;22.38;48.74;101672.45;1694982;83;21081;-51
2021/10/27 00:15:11;;;;;;;14.15;11.20;;;;;;;22.38;48.68;101675.22;1723558;81;21033;-49
2021/10/27 00:17:38;;;;;;;13.53;9.75;;;;;;;22.35;48.68;101668.09;1701987;83;21111;-50
2021/10/27 00:20:05;;;;;;;16.20;11.08;;;;;;;22.32;48.67;101675.88;1693991;83;21334;-52
2021/10/27 00:22:32;;;;;;;15.38;11.25;;;;;;;22.32;48.70;101674.50;1691308;83;21133;-52
2021/10/27 00:24:58;;;;;;;14.63;10.63;;;;;;;22.35;48.67;101673.08;1708343;82;21116;-51
2021/10/27 00:27:24;;;;;;;15.20;11.30;;;;;;;22.36;48.66;101671.95;1710863;82;20969;-51
2021/10/27 00:29:50;;;;;;;15.53;10.43;;;;;;;22.36;48.61;101668.36;1712077;82;21073;-51
2021/10/27 00:32:17;;;;;;;13.10;9.90;;;;;;;22.33;48.58;101673.94;1709649;82;21328;-52
2021/10/27 00:34:43;;;;;;;13.55;10.45;;;;;;;22.32;48.59;101660.63;1708529;83;21092;-50
2021/10/27 00:37:09;;;;;;;14.03;11.40;;;;;;;22.32;48.59;101662.02;1711628;82;21026;-50
2021/10/27 00:39:36;;;;;;;12.75;10.43;;;;;;;22.34;48.60;101663.11;1722226;81;21759;-51
2021/10/27 00:42:04;;;;;;;12.45;10.23;;;;;;;22.36;48.56;101670.56;1690128;84;21095;-51
2021/10/27 00:44:30;;;;;;;13.93;10.20;;;;;;;22.36;48.49;101660.86;1678603;84;21988;-52
2021/10/27 00:47:09;;;;;;;15.18;11.22;;;;;;;22.32;48.47;101660.63;1689516;84;21120;-50
2021/10/27 00:49:37;;;;;;;13.48;10.23;;;;;;;22.31;48.48;101656.80;1682528;84;21163;-51
2021/10/27 00:52:06;;;;;;;12.73;9.90;;;;;;;22.31;48.48;101655.42;1685266;84;21186;-51
2021/10/27 00:54:33;;;;;;;13.93;10.25;;;;;;;22.33;48.49;101655.92;1746814;81;21578;-52
2021/10/27 00:57:01;;;;;;;14.28;10.55;;;;;;;22.33;48.44;101658.13;1744772;81;21075;-49
2021/10/27 00:59:27;;;;;;;13.18;10.18;;;;;;;22.32;48.38;101652.88;1743923;81;21021;-52
2021/10/27 01:01:53;;;;;;;13.18;9.95;;;;;;;22.30;48.38;101657.37;1750366;81;21447;-49
2021/10/27 01:04:20;;;;;;;12.80;9.73;;;;;;;22.29;48.40;101654.89;1698613;82;21104;-50
2021/10/27 01:06:46;;;;;;;13.60;10.58;;;;;;;22.30;48.39;101655.16;1709366;82;21178;-50
2021/10/27 01:09:12;;;;;;;13.68;10.05;;;;;;;22.31;48.38;101650.70;1676204;84;21346;-49
2021/10/27 01:11:38;;;;;;;18.55;11.05;;;;;;;22.33;48.31;101660.08;1691533;84;20898;-51
2021/10/27 01:14:05;;;;;;;13.85;9.98;;;;;;;22.32;48.27;101655.65;1752690;80;20915;-49
2021/10/27 01:16:31;;;;;;;13.03;10.10;;;;;;;22.29;48.28;101653.50;1751272;81;21036;-51
2021/10/27 01:18:58;;;;;;;12.88;9.98;;;;;;;22.28;48.29;101654.06;1749628;81;21069;-52
2021/10/27 01:21:25;;;;;;;14.13;10.30;;;;;;;22.28;48.30;101659.61;1751974;80;21420;-50
2021/10/27 01:23:52;;;;;;;14.07;10.43;;;;;;;22.30;48.25;101651.82;1742903;80;21021;-51
2021/10/27 01:26:18;;;;;;;12.68;10.05;;;;;;;22.30;48.19;101649.61;1750898;81;21025;-53
2021/10/27 01:28:45;;;;;;;12.23;9.55;;;;;;;22.29;48.19;101649.34;1749416;80;21510;-50
2021/10/27 01:31:12;;;;;;;11.28;9.30;;;;;;;;;;1749339;81;21056;-48
2021/10/27 01:33:38;;;;;;;13.90;9.73;;;;;;;22.28;48.20;101636.61;1747297;81;22099;-49
2021/10/27 01:36:04;;;;;;;13.90;10.23;;;;;;;22.31;48.15;101638.78;1752843;81;20956;-49
2021/10/27 01:38:32;;;;;;;12.90;9.63;;;;;;;22.31;48.10;101634.63;1752255;81;21159;-52
2021/10/27 01:41:01;;;;;;;13.58;9.65;;;;;;;22.29;48.06;101640.47;1717512;81;21076;-51
2021/10/27 01:43:27;;;;;;;12.90;9.65;;;;;;;22.29;48.08;101642.42;1723593;82;21153;-50
2021/10/27 01:45:56;;;;;;;13.90;9.28;;;;;;;22.26;48.10;101642.48;1744388;80;21071;-47
2021/10/27 01:48:24;;;;;;;13.15;9.33;;;;;;;22.26;48.11;101642.48;1761817;80;21426;-49
2021/10/27 01:50:50;;;;;;;12.07;8.68;;;;;;;22.27;48.07;101633.61;1756263;80;21052;-52
2021/10/27 01:53:16;;;;;;;12.28;9.38;;;;;;;22.29;48.06;101639.64;1763948;80;21629;-51
2021/10/27 01:55:42;;;;;;;11.28;9.18;;;;;;;22.29;48.03;101643.80;1761478;80;21107;-52
2021/10/27 01:58:09;;;;;;;13.48;9.93;;;;;;;22.27;48.03;101641.92;1770953;80;22033;-49
2021/10/27 02:00:35;;;;;;;12.85;9.48;;;;;;;22.26;48.04;101644.43;1764430;80;21025;-49
2021/10/27 02:03:02;;;;;;;12.78;9.53;;;;;;;;;;1766429;80;21005;-50
2021/10/27 02:05:28;;;;;;;12.03;9.83;;;;;;;;;;1764500;80;22494;-52
2021/10/27 02:07:54;;;;;;;13.40;10.00;;;;;;;22.30;47.92;101655.16;1761724;80;20878;-51
2021/10/27 02:10:20;;;;;;;11.05;9.50;;;;;;;22.29;47.89;101657.10;1760999;80;21315;-52
2021/10/27 02:12:46;;;;;;;14.28;10.35;;;;;;;;;;1767280;80;20897;-53
2021/10/27 02:15:12;;;;;;;11.63;9.18;;;;;;;22.25;47.89;101650.53;1766029;80;20877;-48
2021/10/27 02:17:38;;;;;;;13.40;9.40;;;;;;;22.26;47.90;101651.36;1766612;80;21074;-52
2021/10/27 02:20:07;;;;;;;12.55;9.55;;;;;;;22.26;47.86;101655.52;1771768;80;20977;-49
2021/10/27 02:22:34;;;;;;;12.70;10.13;;;;;;;22.29;47.82;101653.50;1766275;80;21260;-50
2021/10/27 02:25:00;;;;;;;12.33;9.10;;;;;;;22.29;47.77;101652.12;1763488;80;21021;-51
2021/10/27 02:27:26;;;;;;;12.95;9.50;;;;;;;;;;1769041;80;21687;-51
2021/10/27 02:29:52;;;;;;;11.93;9.28;;;;;;;22.26;47.72;101651.36;1761874;80;20981;-51
2021/10/27 02:32:19;;;;;;;13.93;9.63;;;;;;;22.26;47.75;101652.19;1760700;80;21695;-49
2021/10/27 02:34:45;;;;;;;12.70;9.25;;;;;;;22.26;47.72;101656.91;1766655;80;21308;-53
2021/10/27 02:37:11;;;;;;;12.50;9.45;;;;;;;22.27;47.66;101650.23;1758662;80;21106;-48
2021/10/27 02:39:37;;;;;;;12.30;9.63;;;;;;;22.28;47.62;101651.30;1768744;80;21110;-51
2021/10/27 02:42:03;;;;;;;12.28;9.58;;;;;;;22.28;47.57;101654.06;1780990;79;20960;-50
2021/10/27 02:44:29;;;;;;;12.55;8.95;;;;;;;22.26;47.57;101649.41;1773493;79;21107;-52
2021/10/27 02:46:55;;;;;;;11.25;8.90;;;;;;;22.24;47.58;101654.43;1771822;79;21338;-50
2021/10/27 02:49:21;;;;;;;11.43;9.30;;;;;;;22.25;47.59;101648.33;1772772;79;20869;-51
2021/10/27 02:51:47;;;;;;;11.48;9.00;;;;;;;22.25;47.59;101651.09;1776021;79;20976;-51
2021/10/27 02:54:13;;;;;;;12.05;9.33;;;;;;;22.26;47.51;101648.03;1760011;79;21872;-49
2021/10/27 02:56:39;;;;;;;12.40;8.83;;;;;;;22.28;47.49;101656.02;1770842;79;21114;-51
2021/10/27 02:59:05;;;;;;;12.43;9.38;;;;;;;22.25;47.49;101650.53;1773815;79;21223;-49
2021/10/27 03:01:31;;;;;;;11.85;9.23;;;;;;;22.24;47.49;101651.66;1775543;79;20900;-52
2021/10/27 03:03:57;;;;;;;11.28;9.73;;;;;;;22.23;47.47;101652.81;1775926;79;20976;-51
2021/10/27 03:06:23;;;;;;;11.30;8.80;;;;;;;22.24;47.47;101652.22;1773116;79;20905;-50
2021/10/27 03:08:50;;;;;;;12.28;9.53;;;;;;;22.28;47.45;101658.23;1767096;79;21045;-50
2021/10/27 03:11:16;;;;;;;12.30;9.28;;;;;;;22.30;47.42;101657.93;1733320;81;21295;-52
2021/10/27 03:13:42;;;;;;;12.23;9.00;;;;;;;22.30;47.42;101651.82;1748928;81;21497;-50
2021/10/27 03:16:08;;;;;;;11.63;8.63;;;;;;;22.31;47.43;101659.02;1707261;82;21415;-53
2021/10/27 03:18:34;;;;;;;9.93;7.53;;;;;;;22.33;47.47;101651.20;1700742;82;21056;-50
2021/10/27 03:21:01;;;;;;;11.28;7.62;;;;;;;22.37;47.46;101654.17;1745415;81;21694;-49
2021/10/27 03:23:27;;;;;;;8.53;7.00;;;;;;;22.40;47.51;101648.59;1747694;81;21139;-48
2021/10/27 03:25:53;;;;;;;8.85;6.67;;;;;;;22.41;47.51;101652.41;1742054;81;22551;-50
2021/10/27 03:28:20;;;;;;;11.00;7.62;;;;;;;22.43;47.53;101657.66;1745357;81;21487;-48
2021/10/27 03:30:46;;;;;;;9.60;7.72;;;;;;;22.44;47.57;101655.98;1742121;81;21079;-50
2021/10/27 03:33:12;;;;;;;10.60;7.78;;;;;;;22.47;47.58;101653.96;1737948;81;21092;-51
2021/10/27 03:35:38;;;;;;;9.38;8.20;;;;;;;22.50;47.63;101656.11;1737609;81;21143;-49
2021/10/27 03:38:04;;;;;;;8.70;7.12;;;;;;;22.52;47.61;101659.41;1743967;81;21090;-52
2021/10/27 03:40:30;;;;;;;8.58;6.85;;;;;;;22.54;47.63;101654.92;1710093;82;20913;-49
2021/10/27 03:42:57;;;;;;;9.38;6.83;;;;;;;22.54;47.65;101661.28;1735533;81;21107;-49
2021/10/27 03:45:23;;;;;;;8.33;6.85;;;;;;;22.56;47.66;101661.81;1744718;80;21676;-53
2021/10/27 03:47:48;;;;;;;9.20;7.45;;;;;;;22.59;47.70;101658.41;1742136;81;21195;-50
2021/10/27 03:50:15;;;;;;;8.45;7.12;;;;;;;22.61;47.72;101656.72;1743363;81;21426;-48
2021/10/27 03:52:43;;;;;;;9.00;7.20;;;;;;;22.64;47.71;101660.25;1743021;81;21107;-53
2021/10/27 03:55:10;;;;;;;7.60;6.42;;;;;;;22.66;47.72;101659.39;1722460;81;21036;-50
2021/10/27 03:57:36;;;;;;;8.03;7.00;;;;;;;22.66;47.72;101659.39;1725578;81;21067;-51
2021/10/27 04:00:05;;;;;;;10.70;7.60;;;;;;;22.66;47.73;101653.25;1735593;81;20997;-53
2021/10/27 04:02:31;;;;;;;8.65;7.05;;;;;;;22.68;47.74;101655.72;1729699;81;21408;-52
2021/10/27 04:04:57;;;;;;;8.55;7.00;;;;;;;22.71;47.75;101656.52;1729089;81;21091;-51
2021/10/27 04:07:23;;;;;;;8.33;7.12;;;;;;;22.73;47.75;101659.81;1732761;81;21564;-51
2021/10/27 04:09:49;;;;;;;10.55;7.67;;;;;;;22.75;47.74;101659.73;1712234;82;20878;-49
2021/10/27 04:12:15;;;;;;;8.80;6.97;;;;;;;22.74;47.71;101659.48;1713776;82;21659;-50
2021/10/27 04:14:41;;;;;;;9.23;7.58;;;;;;;22.75;47.71;101664.47;1709364;82;20906;-52
2021/10/27 04:17:07;;;;;;;9.20;7.20;;;;;;;22.75;47.68;101666.67;1711014;82;21476;-49
2021/10/27 04:19:34;;;;;;;9.85;7.75;;;;;;;22.75;47.70;101662.52;1711022;82;20870;-51
2021/10/27 04:22:01;;;;;;;9.43;7.20;;;;;;;22.78;47.68;101668.02;1776169;79;21028;-51
2021/10/27 04:24:27;;;;;;;10.58;8.00;;;;;;;22.78;47.67;101668.02;1777336;79;21125;-51
2021/10/27 04:26:53;;;;;;;8.43;7.28;;;;;;;22.79;47.65;101673.80;1773664;79;20904;-52
2021/10/27 04:29:19;;;;;;;11.70;8.33;;;;;;;22.79;47.60;101669.64;1774333;79;21126;-52
2021/10/27 04:31:45;;;;;;;8.53;7.15;;;;;;;22.80;47.58;101666.30;1776096;79;21659;-50
2021/10/27 04:34:12;;;;;;;8.68;6.42;;;;;;;22.79;47.56;101666.87;1779355;79;21066;-52
2021/10/27 04:36:38;;;;;;;8.48;6.60;;;;;;;22.82;47.55;101665.44;1777850;79;21463;-52
2021/10/27 04:39:05;;;;;;;9.23;7.55;;;;;;;22.82;47.55;101659.89;1780001;79;20901;-56
2021/10/27 04:41:31;;;;;;;8.98;7.08;;;;;;;22.82;47.50;101666.27;1716390;82;21014;-52
2021/10/27 04:43:57;;;;;;;9.08;7.42;;;;;;;22.81;47.48;101657.69;1709023;82;21053;-52
2021/10/27 04:46:23;;;;;;;10.95;8.40;;;;;;;22.82;47.48;101655.73;1704434;82;20952;-52
2021/10/27 04:48:49;;;;;;;8.58;6.90;;;;;;;22.82;47.44;101659.89;1744581;81;21211;-53
2021/10/27 04:51:15;;;;;;;10.85;7.33;;;;;;;22.83;47.39;101664.31;1741576;81;21044;-49
2021/10/27 04:53:41;;;;;;;9.28;7.40;;;;;;;22.84;47.38;101665.38;1707505;82;21570;-51
2021/10/27 04:56:07;;;;;;;9.48;7.55;;;;;;;22.84;47.35;101663.16;1732533;81;20956;-53
2021/10/27 04:58:33;;;;;;;9.35;7.22;;;;;;;22.83;47.29;101665.70;1699006;82;20952;-52
2021/10/27 05:00:59;;;;;;;10.48;7.60;;;;;;;22.81;47.29;101670.73;1701440;82;22210;-50
2021/10/27 05:03:26;;;;;;;9.70;7.37;;;;;;;22.82;47.25;101675.16;1742536;81;21005;-51
2021/10/27 05:05:56;;;;;;;10.82;8.28;;;;;;;22.82;47.24;101679.31;1712945;81;21083;-52
2021/10/27 05:08:23;;;;;;;;;;;;;;;22.83;47.17;101685.92;1718234;81;21056;-53
2021/10/27 05:10:53;;;;;;;10.00;7.70;;;;;;;22.83;47.16;101694.24;1740862;81;20167;-50
2021/10/27 05:13:19;;;;;;;9.93;7.80;;;;;;;22.82;47.15;101698.73;1749733;81;21534;-52
2021/10/27 05:15:47;;;;;;;9.75;7.40;;;;;;;22.81;47.13;101705.41;1742174;81;21151;-49
2021/10/27 05:18:13;;;;;;;12.47;7.75;;;;;;;22.79;47.13;101703.53;1706126;82;21162;-51
2021/10/27 05:20:39;;;;;;;10.38;8.08;;;;;;;22.80;47.11;101710.13;1703710;82;21461;-49
2021/10/27 05:23:06;;;;;;;11.78;9.00;;;;;;;22.80;47.04;101710.13;1734301;80;21064;-50
2021/10/27 05:25:33;;;;;;;11.73;8.68;;;;;;;22.80;46.84;101716.24;1745629;81;21081;-49
2021/10/27 05:27:59;;;;;;;11.05;7.85;;;;;;;22.79;46.67;101713.24;1695924;82;21072;-51
2021/10/27 05:30:25;;;;;;;10.75;7.35;;;;;;;22.77;46.63;101720.47;1699682;82;20905;-48
2021/10/27 05:32:56;;;;;;;9.98;7.75;;;;;;;22.74;46.62;101721.11;1747867;81;21073;-52
2021/10/27 05:35:19;;;;;;;10.10;8.03;;;;;;;22.73;46.71;101714.73;1706486;82;21068;-49
2021/10/27 05:37:45;;;;;;;10.60;7.47;;;;;;;22.75;46.70;101720.77;1734690;81;22095;-52
2021/10/27 05:40:12;;;;;;;13.08;8.08;;;;;;;22.76;46.73;101726.59;1719153;81;21084;-51
2021/10/27 05:42:40;;;;;;;9.80;7.67;;;;;;;22.78;46.72;101737.39;1718285;81;21044;-51
2021/10/27 05:45:07;;;;;;;9.93;7.62;;;;;;;22.76;46.72;101741.84;1718604;81;21499;-54
2021/10/27 05:47:34;;;;;;;14.00;7.50;;;;;;;22.76;46.73;101747.95;1716837;82;21154;-51
2021/10/27 05:55:57;;;;;;;12.47;7.37;;;;;;;22.75;46.89;101751.29;1717500;81;21076;-53
2021/10/27 05:57:58;;;;;;;11.22;7.45;;;;;;;22.77;46.94;101756.55;1709592;81;21056;-51
2021/10/27 06:00:24;;;;;;;10.95;7.78;;;;;;;22.75;47.02;101765.72;1721879;81;21135;-52
2021/10/27 06:02:50;;;;;;;10.72;6.90;;;;;;;22.73;47.08;101763.28;1719502;81;21115;-52
2021/10/27 06:05:16;;;;;;;10.43;8.38;;;;;;;22.72;47.16;101767.17;1699656;83;21938;-53
2021/10/27 06:07:42;;;;;;;19.12;9.05;;;;;;;22.73;47.27;101768.00;1706696;81;20885;-46
2021/10/27 06:10:12;;;;;;;24.65;11.28;;;;;;;22.73;47.23;101763.84;1712914;82;21075;-47
2021/10/27 06:12:37;;;;;;;16.85;10.05;;;;;;;22.73;46.97;101778.54;1722640;81;21100;-45
2021/10/27 06:15:04;;;;;;;16.10;10.20;;;;;;;22.70;46.74;101777.75;1719727;81;21122;-46
2021/10/27 06:17:30;;;;;;;14.87;9.15;;;;;;;22.66;46.53;101778.08;1714993;81;21163;-45
2021/10/27 06:19:57;;;;;;;16.07;9.85;;;;;;;22.61;46.26;101783.75;1713766;81;21111;-45
2021/10/27 06:22:23;;;;;;;15.90;9.70;;;;;;;22.55;46.00;101780.80;1718315;81;21084;-46
2021/10/27 06:24:49;;;;;;;15.90;8.95;;;;;;;22.51;45.89;101785.88;1719500;81;21090;-45
2021/10/27 06:27:15;;;;;;;14.40;8.80;;;;;;;22.44;45.92;101780.77;1717346;82;21015;-46
2021/10/27 06:29:46;;;;;;;14.23;8.98;;;;;;;22.40;46.02;101783.89;1709806;81;20940;-45
2021/10/27 06:32:21;;;;;;;18.02;9.05;;;;;;;22.35;46.11;101784.54;1719070;81;21186;-45
2021/10/27 06:34:46;;;;;;;11.45;8.63;;;;;;;22.29;46.21;101784.62;1715240;81;21155;-47
2021/10/27 06:47:45;;;;;;;12.25;7.33;;;;;;;22.15;46.87;101786.54;1764938;79;21107;-44
2021/10/27 06:50:11;;;;;;;12.05;7.70;;;;;;;22.13;46.96;101789.37;1764900;80;21071;-44
2021/10/27 06:52:37;;;;;;;13.20;7.85;;;;;;;22.09;47.07;101791.93;1759033;80;21155;-46
2021/10/27 06:55:04;;;;;;;14.13;8.15;;;;;;;22.08;47.15;101797.77;1758038;80;21092;-45
2021/10/27 06:57:31;;;;;;;13.30;7.83;;;;;;;22.04;47.24;101798.12;1759844;80;21135;-45
2021/10/27 07:00:03;;;;;;;14.58;8.63;;;;;;;22.03;47.34;101794.52;1729675;81;21423;-45
2021/10/27 07:02:48;;;;;;;13.90;8.18;;;;;;;22.02;47.46;101795.67;1730752;81;21108;-42
2021/10/27 07:15:43;;;;;;;12.93;8.25;;;;;;;21.92;47.91;101798.59;1765828;80;21087;-44
2021/10/27 07:18:10;;;;;;;16.07;7.90;;;;;;;21.90;47.98;101799.42;1770377;79;21089;-44
2021/10/27 07:20:36;;;;;;;12.25;7.75;;;;;;;21.88;48.07;101795.59;1764396;80;21096;-43
2021/10/27 07:23:02;;;;;;;13.18;7.55;;;;;;;21.87;48.15;101794.49;1758203;79;21115;-44
2021/10/27 07:25:33;;;;;;;11.25;7.35;;;;;;;21.86;48.23;101799.20;1759642;79;21126;-43
2021/10/27 07:27:57;;;;;;;11.40;6.78;;;;;;;21.86;48.30;101795.05;1765660;79;21009;-44
2021/10/27 07:30:23;;;;;;;12.65;7.20;;;;;;;21.84;48.38;101797.31;1767109;79;21274;-44
2021/10/27 07:32:53;;;;;;;9.75;7.25;;;;;;;21.82;48.42;101791.24;1759949;80;20956;-46
2021/10/27 07:35:24;;;;;;;13.10;7.12;;;;;;;21.81;48.48;101800.67;1764104;80;21072;-43
2021/10/27 07:40:41;;;;;;;11.68;7.15;;;;;;;21.80;48.60;101795.45;1764990;79;21043;-44
2021/10/27 07:43:13;;;;;;;13.28;7.58;;;;;;;21.79;48.68;101789.64;1775145;79;21087;-44
2021/10/27 07:45:39;;;;;;;9.68;7.10;;;;;;;21.79;48.73;101786.88;1772867;79;21127;-44
2021/10/27 07:48:05;;;;;;;10.25;7.78;;;;;;;21.78;48.81;101787.44;1769204;79;21083;-43
2021/10/27 07:50:32;;;;;;;12.37;7.40;;;;;;;21.77;48.86;101784.39;1768565;79;21124;-45
2021/10/27 07:53:01;;;;;;;11.28;7.15;;;;;;;21.76;48.92;101796.63;1766917;79;21067;-44
2021/10/27 07:55:28;;;;;;;11.53;6.80;;;;;;;21.75;48.97;101794.14;1773287;79;21134;-44
2021/10/27 07:57:55;;;;;;;8.70;6.42;;;;;;;21.73;49.01;101794.43;1769957;79;21460;-45
2021/10/27 08:00:22;;;;;;;11.40;6.42;;;;;;;21.72;49.07;101792.81;1774625;79;21111;-44
2021/10/27 08:02:49;;;;;;;10.30;6.55;;;;;;;21.70;49.14;101791.45;1775411;79;21186;-46
2021/10/27 08:05:18;;;;;;;9.93;6.95;;;;;;;21.70;49.20;101792.27;1768600;79;21118;-44
2021/10/27 08:07:50;;;;;;;10.35;7.37;;;;;;;21.71;49.25;101798.08;1723314;81;21246;-46
2021/10/27 08:10:19;;;;;;;11.33;6.92;;;;;;;21.70;49.30;101796.43;1704913;82;21565;-44
2021/10/27 08:12:46;;;;;;;9.70;6.90;;;;;;;21.70;49.34;101793.66;1737471;81;21573;-45
2021/10/27 08:15:13;;;;;;;9.03;6.17;;;;;;;21.68;49.37;101798.69;1696304;82;21530;-43
2021/10/27 08:17:40;;;;;;;11.12;6.58;;;;;;;21.66;49.40;101789.02;1743234;81;21022;-44
2021/10/27 08:20:08;;;;;;;7.78;6.15;;;;;;;21.66;49.46;101792.62;1708862;82;21361;-45
2021/10/27 08:22:35;;;;;;;9.30;5.97;;;;;;;21.65;49.52;101788.75;1740637;81;21312;-46
2021/10/27 08:25:05;;;;;;;9.00;6.35;;;;;;;21.63;49.56;101791.84;1733850;81;21116;-45
2021/10/27 08:27:32;;;;;;;9.08;6.12;;;;;;;21.64;49.62;101797.62;1736829;81;21593;-43
2021/10/27 08:30:03;;;;;;;9.60;6.35;;;;;;;21.64;49.66;101799.00;1737306;81;21514;-45
2021/10/27 08:34:54;;;;;;;8.10;6.50;;;;;;;21.63;49.76;101792.41;1710456;82;21111;-43
2021/10/27 08:37:22;;;;;;;8.65;5.70;;;;;;;21.62;49.78;101790.75;1712641;82;32512;-45
2021/10/27 08:39:48;;;;;;;8.85;6.45;;;;;;;21.61;49.80;101789.09;1732450;80;21027;-44
2021/10/27 08:42:15;;;;;;;9.30;5.75;;;;;;;21.60;49.84;101791.03;1734755;80;21060;-44
2021/10/27 08:44:42;;;;;;;9.20;5.62;;;;;;;21.59;49.91;101787.20;1719128;81;21559;-44
2021/10/27 08:47:09;;;;;;;7.80;6.05;;;;;;;21.60;49.93;101788.86;1761703;80;21068;-44
2021/10/27 08:49:35;;;;;;;8.10;5.42;;;;;;;21.59;49.99;101788.03;1758150;80;21056;-46
2021/10/27 08:52:04;;;;;;;8.23;6.00;;;;;;;21.60;50.03;101787.47;1759714;80;21594;-45
2021/10/27 08:54:29;;;;;;;8.68;5.50;;;;;;;21.60;50.07;101787.47;1764991;80;21048;-45
2021/10/27 08:56:58;;;;;;;8.98;5.72;;;;;;;21.58;50.09;101783.61;1757308;79;21225;-45
2021/10/27 08:59:40;;;;;;;7.05;5.58;;;;;;;21.59;50.14;101784.44;1757834;79;21035;-44
2021/10/27 09:04:44;;;;;;;7.67;5.37;;;;;;;21.55;50.22;101784.22;1768591;79;21126;-45
2021/10/27 09:10:02;;;;;;;8.80;5.45;;;;;;;21.55;50.29;101782.01;1757850;80;21783;-46
2021/10/27 09:40:11;;;;;;;7.67;5.00;;;;;;;21.47;50.71;101765.52;1757684;79;21498;-44
2021/10/27 09:55:28;;;;;;;6.40;4.60;;;;;;;21.43;50.81;101765.03;1736472;81;21076;-47
2021/10/27 10:04:09;;;;;;;6.20;5.03;;;;;;;21.40;51.08;101760.34;1739930;81;21273;-46
2021/10/27 10:06:41;;;;;;;10.32;5.08;;;;;;;21.39;51.10;101755.92;1731377;81;21133;-45
2021/10/27 10:09:08;;;;;;;5.92;4.62;;;;;;;21.38;51.15;101757.06;1758693;80;21052;-43
2021/10/27 10:11:34;;;;;;;6.70;4.40;;;;;;;21.39;51.19;101758.69;1758767;79;21094;-43
2021/10/27 10:14:02;;;;;;;7.97;5.15;;;;;;;21.41;51.20;101759.78;1761691;79;21012;-44
2021/10/27 10:16:31;;;;;;;6.60;5.15;;;;;;;21.41;51.24;101753.69;1769284;80;21186;-45
2021/10/27 10:19:00;;;;;;;7.03;4.92;;;;;;;21.41;51.26;101750.92;1768704;80;21138;-45
2021/10/27 10:21:28;;;;;;;8.15;4.97;;;;;;;21.42;51.29;101755.91;1764206;80;21115;-45
2021/10/27 10:24:24;;;;;;;6.70;4.72;;;;;;;21.41;51.33;101750.09;1733146;81;21069;-42
2021/10/27 10:26:51;;;;;;;7.22;4.85;;;;;;;21.42;51.36;101754.52;1695552;82;21064;-41
2021/10/27 10:29:46;;;;;;;5.90;4.37;;;;;;;21.42;51.41;101760.05;1761620;80;22040;-45
2021/10/27 10:32:33;;;;;;;8.33;4.87;;;;;;;21.42;51.40;101747.59;1706271;80;21043;-42
2021/10/27 10:35:15;;;;;;;6.10;4.47;;;;;;;21.43;51.43;101749.22;1764788;80;21516;-42
2021/10/27 10:37:52;;;;;;;6.37;4.58;;;;;;;21.43;51.48;101751.42;1762028;80;21454;-44
2021/10/27 10:40:55;;;;;;;8.78;4.85;;;;;;;21.43;51.47;101748.66;1761200;80;21111;-43
2021/10/27 10:43:51;;;;;;;5.50;4.25;;;;;;;21.43;51.50;101745.66;1763176;79;21490;-44
2021/10/27 10:55:39;;;;;;;6.35;4.30;;;;;;;21.41;51.52;101746.77;1716540;81;21088;-45
2021/10/27 11:37:51;;;;;;;5.83;3.95;;;;;;;21.37;51.90;101703.38;1726276;81;21091;-44
2021/10/27 11:40:43;;;;;;;5.40;4.25;;;;;;;21.38;51.94;101690.63;1719393;81;21482;-43
2021/10/27 11:48:26;;;;;;;7.03;4.20;;;;;;;21.39;51.95;101672.88;1702024;82;21572;-47
2021/10/27 11:50:49;;;;;;;5.25;3.77;;;;;;;21.38;51.96;101662.12;1716895;81;21036;-45
2021/10/27 11:53:32;;;;;;;5.53;3.90;;;;;;;21.38;51.99;101657.41;1711233;82;21524;-44
2021/10/27 11:56:02;;;;;;;6.20;3.95;;;;;;;21.39;52.00;101658.20;1718377;81;21091;-45
2021/10/27 11:58:42;;;;;;;5.50;3.90;;;;;;;21.41;52.03;101658.19;1688132;81;21065;-44
2021/10/27 12:01:26;;;;;;;6.12;3.83;;;;;;;21.43;52.04;101658.45;1721834;81;21841;-46
2021/10/27 12:03:52;;;;;;;5.70;3.58;;;;;;;21.45;52.07;101658.95;1695227;83;21613;-47
2021/10/27 12:06:31;;;;;;;6.95;3.72;;;;;;;21.43;52.02;101655.91;1724374;81;21227;-48
2021/10/27 12:11:33;;;;;;;5.60;3.75;;;;;;;21.45;52.02;101668.64;1713155;81;21080;-44
2021/10/27 12:14:38;;;;;;;5.85;4.00;;;;;;;21.44;52.04;101663.66;1715302;81;21048;-44
2021/10/27 12:19:27;;;;;;;5.25;3.20;;;;;;;21.45;52.07;101654.80;1708440;82;21160;-45
2021/10/27 12:22:02;;;;;;;5.87;3.80;;;;;;;21.42;52.09;101638.24;1704603;82;21055;-51
2021/10/27 12:24:31;;;;;;;8.50;3.30;;;;;;;21.48;52.15;101648.64;1699983;83;21575;-47
2021/10/27 12:27:03;;;;;;;4.58;3.25;;;;;;;21.50;52.24;101645.85;1713190;81;21672;-46
2021/10/27 12:29:32;;;;;;;4.12;3.30;;;;;;;21.54;52.24;101651.04;1711995;81;21091;-45
2021/10/27 12:32:13;;;;;;;5.65;3.42;;;;;;;21.56;52.36;101642.41;1725562;81;21108;-46
2021/10/27 12:34:55;;;;;;;5.20;3.20;;;;;;;21.57;52.45;101641.29;1724388;81;21110;-47
2021/10/27 12:37:42;;;;;;;5.05;3.25;;;;;;;21.57;52.59;101638.52;1726852;81;21342;-45
2021/10/27 12:40:35;;;;;;;5.72;3.92;;;;;;;21.58;52.68;101635.46;1693887;83;21230;-49
2021/10/27 12:43:16;;;;;;;5.65;3.42;;;;;;;21.60;52.84;101644.27;1699110;83;22219;-45
2021/10/27 12:45:50;;;;;;;5.45;3.50;;;;;;;21.62;52.98;101645.36;1703497;82;21135;-48
2021/10/27 12:48:23;;;;;;;9.08;3.52;;;;;;;21.64;53.15;101645.89;1722295;81;21150;-46
2021/10/27 12:50:58;;;;;;;4.87;2.98;;;;;;;21.66;53.27;101646.39;1767115;79;21653;-46
2021/10/27 12:53:43;;;;;;;6.25;3.42;;;;;;;21.66;53.34;101646.39;1759066;80;21091;-47
2021/10/27 12:56:24;;;;;;;5.83;3.20;;;;;;;21.67;53.46;101654.97;1763114;80;21127;-47
2021/10/27 12:59:02;;;;;;;3.85;2.95;;;;;;;21.66;53.56;101658.30;1760624;80;21055;-49
2021/10/27 13:01:53;;;;;;;6.58;2.98;;;;;;;21.66;53.68;101656.91;1763312;80;21526;-48
2021/10/27 13:04:21;;;;;;;5.40;3.52;;;;;;;21.69;53.80;101654.08;1756084;80;21730;-46
2021/10/27 13:22:29;;;;;;;5.10;2.98;;;;;;;21.94;54.68;101661.16;1760801;80;21589;-46
2021/10/27 13:30:19;;;;;;;4.20;3.10;;;;;;;22.01;54.76;101658.23;1763197;80;21478;-45
2021/10/27 13:32:56;;;;;;;3.72;2.70;;;;;;;22.02;54.76;101659.06;1759314;80;21067;-46
2021/10/27 13:35:13;;;;;;;4.65;2.70;;;;;;;22.01;54.79;101648.54;1762872;80;21573;-48
2021/10/27 13:37:39;;;;;;;5.40;3.20;;;;;;;22.01;54.80;101651.31;1757423;80;21912;-47
2021/10/27 13:40:07;;;;;;;4.75;2.72;;;;;;;22.00;54.81;101649.66;1723883;81;21077;-46
2021/10/27 13:42:44;;;;;;;6.45;3.05;;;;;;;21.98;54.84;101651.11;1724585;81;21123;-45
2021/10/27 14:09:09;;;;;;;1.82;1.40;;;;;;;21.86;55.47;101651.55;1709137;81;21118;-48
2021/10/27 14:12:18;;;;;;;1.98;1.42;;;;;;;21.86;55.35;101655.70;1704219;82;21509;-51
2021/10/27 14:14:24;;;;;;;1.75;1.45;;;;;;;21.87;55.15;101649.88;1674133;84;21536;-48
2021/10/27 14:19:28;;;;;;;2.60;1.72;;;;;;;21.91;54.83;101658.95;1710565;82;21276;-47
2021/10/27 15:21:45;;;;;;;2.62;1.40;;;;;;;22.20;54.22;101705.24;1671557;84;21080;-47
2021/10/27 15:24:18;;;;;;;2.30;1.32;;;;;;;22.21;54.21;101709.11;1677382;83;21545;-48
2021/10/27 15:29:34;;;;;;;2.17;1.40;;;;;;;22.22;54.24;101710.76;1678255;84;21095;-48
2021/10/27 15:32:17;;;;;;;1.50;1.30;;;;;;;22.23;54.27;101715.73;1672992;84;21158;-49
2021/10/27 15:34:38;;;;;;;3.02;1.37;;;;;;;22.22;54.32;101715.47;1665752;84;21098;-48
2021/10/27 15:37:16;;;;;;;1.40;1.00;;;;;;;22.24;54.37;101722.34;1655703;84;21061;-46
2021/10/27 15:42:35;;;;;;;2.52;1.22;;;;;;;22.31;54.62;101724.16;1704724;82;21056;-47
2021/10/27 15:52:56;;;;;;;1.80;1.10;;;;;;;22.45;54.75;101728.30;1764810;80;21533;-47